sensor_id;sensor_type;location;lat;lon;timestamp;temperature;humidity
25963;DHT22;13760;52.588;13.406;2023-03-04T00:00:29;2.30;99.90
25963;DHT22;13760;52.588;13.406;2023-03-04T00:02:59;2.30;99.90
25963;DHT22;13760;52.588;13.406;2023-03-04T00:05:40;2.20;99.90
25963;DHT22;13760;52.588;13.406;2023-03-04T00:08:13;2.20;99.90
25963;DHT22;13760;52.588;13.406;2023-03-04T00:11:01;2.20;99.90
25963;DHT22;13760;52.588;13.406;2023-03-04T00:13:27;2.20;99.90
25963;DHT22;13760;52.588;13.406;2023-03-04T00:15:52;2.20;99.90
25963;DHT22;13760;52.588;13.406;2023-03-04T00:18:18;2.30;99.90
25963;DHT22;13760;52.588;13.406;2023-03-04T00:20:45;2.40;99.90
25963;DHT22;13760;52.588;13.406;2023-03-04T00:23:11;2.40;99.90
25963;DHT22;13760;52.588;13.406;2023-03-04T00:25:36;2.40;99.90
25963;DHT22;13760;52.588;13.406;2023-03-04T00:28:02;2.50;99.90
25963;DHT22;13760;52.588;13.406;2023-03-04T00:30:28;2.50;99.90
25963;DHT22;13760;52.588;13.406;2023-03-04T00:32:53;2.50;99.90
25963;DHT22;13760;52.588;13.406;2023-03-04T00:35:19;2.50;99.90
25963;DHT22;13760;52.588;13.406;2023-03-04T00:37:44;2.60;99.90
25963;DHT22;13760;52.588;13.406;2023-03-04T00:40:10;2.60;99.90
25963;DHT22;13760;52.588;13.406;2023-03-04T00:42:36;2.70;99.90
25963;DHT22;13760;52.588;13.406;2023-03-04T00:45:03;2.70;99.90
25963;DHT22;13760;52.588;13.406;2023-03-04T00:47:28;2.70;99.90
25963;DHT22;13760;52.588;13.406;2023-03-04T00:49:54;2.70;99.90
25963;DHT22;13760;52.588;13.406;2023-03-04T00:52:19;2.70;99.90
25963;DHT22;13760;52.588;13.406;2023-03-04T00:54:45;2.80;99.90
25963;DHT22;13760;52.588;13.406;2023-03-04T00:57:10;2.80;99.90
25963;DHT22;13760;52.588;13.406;2023-03-04T00:59:36;2.80;99.90
25963;DHT22;13760;52.588;13.406;2023-03-04T01:02:01;2.80;99.90
25963;DHT22;13760;52.588;13.406;2023-03-04T01:04:27;2.90;99.90
25963;DHT22;13760;52.588;13.406;2023-03-04T01:06:53;2.90;99.90
25963;DHT22;13760;52.588;13.406;2023-03-04T01:09:21;2.90;99.90
25963;DHT22;13760;52.588;13.406;2023-03-04T01:11:46;2.80;99.90
25963;DHT22;13760;52.588;13.406;2023-03-04T01:14:12;2.90;99.90
25963;DHT22;13760;52.588;13.406;2023-03-04T01:16:37;2.90;99.90
25963;DHT22;13760;52.588;13.406;2023-03-04T01:19:03;2.90;99.90
25963;DHT22;13760;52.588;13.406;2023-03-04T01:21:28;2.90;99.90
25963;DHT22;13760;52.588;13.406;2023-03-04T01:23:54;2.90;99.90
25963;DHT22;13760;52.588;13.406;2023-03-04T01:26:20;2.90;99.90
25963;DHT22;13760;52.588;13.406;2023-03-04T01:28:46;2.90;99.90
25963;DHT22;13760;52.588;13.406;2023-03-04T01:31:11;2.90;99.90
25963;DHT22;13760;52.588;13.406;2023-03-04T01:33:57;3.00;99.90
25963;DHT22;13760;52.588;13.406;2023-03-04T01:36:23;2.90;99.90
25963;DHT22;13760;52.588;13.406;2023-03-04T01:38:48;3.00;99.90
25963;DHT22;13760;52.588;13.406;2023-03-04T01:41:16;3.00;99.90
25963;DHT22;13760;52.588;13.406;2023-03-04T01:43:43;3.00;99.90
25963;DHT22;13760;52.588;13.406;2023-03-04T01:46:11;3.00;99.90
25963;DHT22;13760;52.588;13.406;2023-03-04T01:48:43;3.00;99.90
25963;DHT22;13760;52.588;13.406;2023-03-04T01:51:14;3.10;99.90
25963;DHT22;13760;52.588;13.406;2023-03-04T01:53:41;3.10;99.90
25963;DHT22;13760;52.588;13.406;2023-03-04T01:56:33;3.10;99.90
25963;DHT22;13760;52.588;13.406;2023-03-04T02:01:46;3.10;99.90
25963;DHT22;13760;52.588;13.406;2023-03-04T02:04:13;3.10;99.90
25963;DHT22;13760;52.588;13.406;2023-03-04T02:06:40;3.10;99.90
25963;DHT22;13760;52.588;13.406;2023-03-04T02:09:06;3.20;99.90
25963;DHT22;13760;52.588;13.406;2023-03-04T02:11:33;3.20;99.90
25963;DHT22;13760;52.588;13.406;2023-03-04T02:14:00;3.20;99.90
25963;DHT22;13760;52.588;13.406;2023-03-04T02:16:26;3.20;99.90
25963;DHT22;13760;52.588;13.406;2023-03-04T02:18:52;3.30;99.90
25963;DHT22;13760;52.588;13.406;2023-03-04T02:21:31;3.30;99.90
25963;DHT22;13760;52.588;13.406;2023-03-04T02:26:54;3.30;99.90
25963;DHT22;13760;52.588;13.406;2023-03-04T02:29:20;3.30;99.90
25963;DHT22;13760;52.588;13.406;2023-03-04T02:31:50;3.40;99.90
25963;DHT22;13760;52.588;13.406;2023-03-04T02:34:20;3.40;99.90
25963;DHT22;13760;52.588;13.406;2023-03-04T02:36:48;3.40;99.90
25963;DHT22;13760;52.588;13.406;2023-03-04T02:39:24;3.40;99.90
25963;DHT22;13760;52.588;13.406;2023-03-04T02:41:53;3.40;99.90
25963;DHT22;13760;52.588;13.406;2023-03-04T02:44:25;3.40;99.90
25963;DHT22;13760;52.588;13.406;2023-03-04T02:46:52;3.50;99.90
25963;DHT22;13760;52.588;13.406;2023-03-04T02:49:18;3.50;99.90
25963;DHT22;13760;52.588;13.406;2023-03-04T02:51:45;3.50;99.90
25963;DHT22;13760;52.588;13.406;2023-03-04T02:54:15;3.50;99.90
25963;DHT22;13760;52.588;13.406;2023-03-04T02:56:52;3.50;99.90
25963;DHT22;13760;52.588;13.406;2023-03-04T02:59:19;3.50;99.90
25963;DHT22;13760;52.588;13.406;2023-03-04T03:01:45;3.60;99.90
25963;DHT22;13760;52.588;13.406;2023-03-04T03:04:11;3.60;99.90
25963;DHT22;13760;52.588;13.406;2023-03-04T03:06:37;3.60;99.90
25963;DHT22;13760;52.588;13.406;2023-03-04T03:09:03;3.60;99.90
25963;DHT22;13760;52.588;13.406;2023-03-04T03:11:28;3.60;99.90
25963;DHT22;13760;52.588;13.406;2023-03-04T03:13:54;3.60;99.90
25963;DHT22;13760;52.588;13.406;2023-03-04T03:16:20;3.60;99.90
25963;DHT22;13760;52.588;13.406;2023-03-04T03:18:54;3.70;99.90
25963;DHT22;13760;52.588;13.406;2023-03-04T03:21:20;3.70;99.90
25963;DHT22;13760;52.588;13.406;2023-03-04T03:24:04;3.70;99.90
25963;DHT22;13760;52.588;13.406;2023-03-04T03:26:32;3.70;99.90
25963;DHT22;13760;52.588;13.406;2023-03-04T03:28:57;3.70;99.90
25963;DHT22;13760;52.588;13.406;2023-03-04T03:31:23;3.70;99.90
25963;DHT22;13760;52.588;13.406;2023-03-04T03:33:49;3.70;99.90
25963;DHT22;13760;52.588;13.406;2023-03-04T03:36:14;3.70;99.90
25963;DHT22;13760;52.588;13.406;2023-03-04T03:38:40;3.70;99.90
25963;DHT22;13760;52.588;13.406;2023-03-04T03:41:05;3.70;99.90
25963;DHT22;13760;52.588;13.406;2023-03-04T03:43:31;3.70;99.90
25963;DHT22;13760;52.588;13.406;2023-03-04T03:45:56;3.70;99.90
25963;DHT22;13760;52.588;13.406;2023-03-04T03:48:22;3.70;99.90
25963;DHT22;13760;52.588;13.406;2023-03-04T03:50:53;3.80;99.90
25963;DHT22;13760;52.588;13.406;2023-03-04T03:53:19;3.80;99.90
25963;DHT22;13760;52.588;13.406;2023-03-04T03:55:47;3.80;99.90
25963;DHT22;13760;52.588;13.406;2023-03-04T03:58:13;3.80;99.90
25963;DHT22;13760;52.588;13.406;2023-03-04T04:00:38;3.80;99.90
25963;DHT22;13760;52.588;13.406;2023-03-04T04:03:04;3.80;99.90
25963;DHT22;13760;52.588;13.406;2023-03-04T04:05:30;3.90;99.90
25963;DHT22;13760;52.588;13.406;2023-03-04T04:07:56;3.80;99.90
25963;DHT22;13760;52.588;13.406;2023-03-04T04:10:22;3.80;99.90
25963;DHT22;13760;52.588;13.406;2023-03-04T04:12:48;3.90;99.90
25963;DHT22;13760;52.588;13.406;2023-03-04T04:15:13;3.90;99.90
25963;DHT22;13760;52.588;13.406;2023-03-04T04:17:39;3.90;99.90
25963;DHT22;13760;52.588;13.406;2023-03-04T04:20:06;3.90;99.90
25963;DHT22;13760;52.588;13.406;2023-03-04T04:22:32;3.90;99.90
25963;DHT22;13760;52.588;13.406;2023-03-04T04:24:57;3.90;99.90
25963;DHT22;13760;52.588;13.406;2023-03-04T04:27:23;3.90;99.90
25963;DHT22;13760;52.588;13.406;2023-03-04T04:29:48;4.00;99.90
25963;DHT22;13760;52.588;13.406;2023-03-04T04:32:14;3.90;99.90
25963;DHT22;13760;52.588;13.406;2023-03-04T04:34:40;4.00;99.90
25963;DHT22;13760;52.588;13.406;2023-03-04T04:37:05;3.90;99.90
25963;DHT22;13760;52.588;13.406;2023-03-04T04:39:31;4.00;99.90
25963;DHT22;13760;52.588;13.406;2023-03-04T04:41:57;4.00;99.90
25963;DHT22;13760;52.588;13.406;2023-03-04T04:44:22;4.00;99.90
25963;DHT22;13760;52.588;13.406;2023-03-04T04:46:48;4.00;99.90
25963;DHT22;13760;52.588;13.406;2023-03-04T04:49:13;4.10;99.90
25963;DHT22;13760;52.588;13.406;2023-03-04T04:51:39;4.10;99.90
25963;DHT22;13760;52.588;13.406;2023-03-04T04:54:05;4.10;99.90
25963;DHT22;13760;52.588;13.406;2023-03-04T04:56:31;4.20;99.90
25963;DHT22;13760;52.588;13.406;2023-03-04T04:58:59;4.20;99.90
25963;DHT22;13760;52.588;13.406;2023-03-04T05:01:25;4.20;99.90
25963;DHT22;13760;52.588;13.406;2023-03-04T05:03:51;4.20;99.90
25963;DHT22;13760;52.588;13.406;2023-03-04T05:06:21;4.20;99.90
25963;DHT22;13760;52.588;13.406;2023-03-04T05:08:47;4.10;99.90
25963;DHT22;13760;52.588;13.406;2023-03-04T05:11:14;4.20;99.90
25963;DHT22;13760;52.588;13.406;2023-03-04T05:13:39;4.20;99.90
25963;DHT22;13760;52.588;13.406;2023-03-04T05:16:05;4.20;99.90
25963;DHT22;13760;52.588;13.406;2023-03-04T05:18:31;4.20;99.90
25963;DHT22;13760;52.588;13.406;2023-03-04T05:20:59;4.20;99.90
25963;DHT22;13760;52.588;13.406;2023-03-04T05:23:26;4.20;99.90
25963;DHT22;13760;52.588;13.406;2023-03-04T05:25:52;4.30;99.90
25963;DHT22;13760;52.588;13.406;2023-03-04T05:28:18;4.30;99.90
25963;DHT22;13760;52.588;13.406;2023-03-04T05:30:44;4.30;99.90
25963;DHT22;13760;52.588;13.406;2023-03-04T05:33:11;4.30;99.90
25963;DHT22;13760;52.588;13.406;2023-03-04T05:35:39;4.20;99.90
25963;DHT22;13760;52.588;13.406;2023-03-04T05:38:06;4.30;99.90
25963;DHT22;13760;52.588;13.406;2023-03-04T05:40:33;4.30;99.90
25963;DHT22;13760;52.588;13.406;2023-03-04T05:42:58;4.30;99.90
25963;DHT22;13760;52.588;13.406;2023-03-04T05:45:25;4.30;99.90
25963;DHT22;13760;52.588;13.406;2023-03-04T05:47:52;4.30;99.90
25963;DHT22;13760;52.588;13.406;2023-03-04T05:50:19;4.30;99.90
25963;DHT22;13760;52.588;13.406;2023-03-04T05:52:45;4.40;99.90
25963;DHT22;13760;52.588;13.406;2023-03-04T05:55:11;4.30;99.90
25963;DHT22;13760;52.588;13.406;2023-03-04T05:57:37;4.40;99.90
25963;DHT22;13760;52.588;13.406;2023-03-04T06:00:11;4.40;99.90
25963;DHT22;13760;52.588;13.406;2023-03-04T06:02:41;4.40;99.90
25963;DHT22;13760;52.588;13.406;2023-03-04T06:05:08;4.40;99.90
25963;DHT22;13760;52.588;13.406;2023-03-04T06:10:21;4.40;99.90
25963;DHT22;13760;52.588;13.406;2023-03-04T06:12:49;4.40;99.90
25963;DHT22;13760;52.588;13.406;2023-03-04T06:15:15;4.40;99.90
25963;DHT22;13760;52.588;13.406;2023-03-04T06:17:41;4.40;99.90
25963;DHT22;13760;52.588;13.406;2023-03-04T06:20:07;4.40;99.90
25963;DHT22;13760;52.588;13.406;2023-03-04T06:22:33;4.40;99.90
25963;DHT22;13760;52.588;13.406;2023-03-04T06:24:59;4.40;99.90
25963;DHT22;13760;52.588;13.406;2023-03-04T06:27:30;4.40;99.90
25963;DHT22;13760;52.588;13.406;2023-03-04T06:29:55;4.40;99.90
25963;DHT22;13760;52.588;13.406;2023-03-04T06:32:21;4.40;99.90
25963;DHT22;13760;52.588;13.406;2023-03-04T06:34:47;4.40;99.90
25963;DHT22;13760;52.588;13.406;2023-03-04T06:37:12;4.40;99.90
25963;DHT22;13760;52.588;13.406;2023-03-04T06:39:38;4.40;99.90
25963;DHT22;13760;52.588;13.406;2023-03-04T06:42:03;4.50;99.90
25963;DHT22;13760;52.588;13.406;2023-03-04T06:44:29;4.50;99.90
25963;DHT22;13760;52.588;13.406;2023-03-04T06:46:55;4.50;99.90
25963;DHT22;13760;52.588;13.406;2023-03-04T06:49:21;4.50;99.90
25963;DHT22;13760;52.588;13.406;2023-03-04T06:51:46;4.50;99.90
25963;DHT22;13760;52.588;13.406;2023-03-04T06:54:12;4.50;99.90
25963;DHT22;13760;52.588;13.406;2023-03-04T06:56:41;4.60;99.90
25963;DHT22;13760;52.588;13.406;2023-03-04T06:59:11;4.60;99.90
25963;DHT22;13760;52.588;13.406;2023-03-04T07:05:02;4.60;99.90
25963;DHT22;13760;52.588;13.406;2023-03-04T07:07:27;4.60;99.90
25963;DHT22;13760;52.588;13.406;2023-03-04T07:09:56;4.60;99.90
25963;DHT22;13760;52.588;13.406;2023-03-04T07:12:24;4.60;99.90
25963;DHT22;13760;52.588;13.406;2023-03-04T07:14:50;4.60;99.90
25963;DHT22;13760;52.588;13.406;2023-03-04T07:17:19;4.60;99.90
25963;DHT22;13760;52.588;13.406;2023-03-04T07:19:50;4.70;99.90
25963;DHT22;13760;52.588;13.406;2023-03-04T07:22:16;4.70;99.90
25963;DHT22;13760;52.588;13.406;2023-03-04T07:24:41;4.70;99.90
25963;DHT22;13760;52.588;13.406;2023-03-04T07:27:07;4.70;99.90
25963;DHT22;13760;52.588;13.406;2023-03-04T07:29:33;4.70;99.90
25963;DHT22;13760;52.588;13.406;2023-03-04T07:31:58;4.70;99.90
25963;DHT22;13760;52.588;13.406;2023-03-04T07:34:24;4.70;99.90
25963;DHT22;13760;52.588;13.406;2023-03-04T07:36:50;4.80;99.90
25963;DHT22;13760;52.588;13.406;2023-03-04T07:39:18;4.80;99.90
25963;DHT22;13760;52.588;13.406;2023-03-04T07:41:53;4.80;99.90
25963;DHT22;13760;52.588;13.406;2023-03-04T07:44:34;4.80;99.90
25963;DHT22;13760;52.588;13.406;2023-03-04T07:47:05;4.80;99.90
25963;DHT22;13760;52.588;13.406;2023-03-04T07:49:30;4.80;99.90
25963;DHT22;13760;52.588;13.406;2023-03-04T07:52:01;4.80;99.90
25963;DHT22;13760;52.588;13.406;2023-03-04T07:54:35;4.80;99.90
25963;DHT22;13760;52.588;13.406;2023-03-04T07:57:19;4.90;99.90
25963;DHT22;13760;52.588;13.406;2023-03-04T07:59:47;4.90;99.90
25963;DHT22;13760;52.588;13.406;2023-03-04T08:02:15;5.00;99.90
25963;DHT22;13760;52.588;13.406;2023-03-04T08:05:03;5.00;99.90
25963;DHT22;13760;52.588;13.406;2023-03-04T08:07:31;5.00;99.90
25963;DHT22;13760;52.588;13.406;2023-03-04T08:10:00;5.10;99.90
25963;DHT22;13760;52.588;13.406;2023-03-04T08:12:26;5.00;99.90
25963;DHT22;13760;52.588;13.406;2023-03-04T08:14:54;5.10;99.90
25963;DHT22;13760;52.588;13.406;2023-03-04T08:17:23;5.10;99.90
25963;DHT22;13760;52.588;13.406;2023-03-04T08:19:48;5.10;99.90
25963;DHT22;13760;52.588;13.406;2023-03-04T08:22:14;5.10;99.90
25963;DHT22;13760;52.588;13.406;2023-03-04T08:24:40;5.10;99.90
25963;DHT22;13760;52.588;13.406;2023-03-04T08:27:06;5.10;99.90
25963;DHT22;13760;52.588;13.406;2023-03-04T08:29:31;5.10;99.90
25963;DHT22;13760;52.588;13.406;2023-03-04T08:31:57;5.10;99.90
25963;DHT22;13760;52.588;13.406;2023-03-04T08:34:37;5.10;99.90
25963;DHT22;13760;52.588;13.406;2023-03-04T08:37:09;5.10;99.90
25963;DHT22;13760;52.588;13.406;2023-03-04T08:39:34;5.20;99.90
25963;DHT22;13760;52.588;13.406;2023-03-04T08:42:01;5.10;99.90
25963;DHT22;13760;52.588;13.406;2023-03-04T08:44:26;5.10;99.90
25963;DHT22;13760;52.588;13.406;2023-03-04T08:46:52;5.20;99.90
25963;DHT22;13760;52.588;13.406;2023-03-04T08:49:18;5.20;99.90
25963;DHT22;13760;52.588;13.406;2023-03-04T08:51:43;5.20;99.90
25963;DHT22;13760;52.588;13.406;2023-03-04T08:54:09;5.30;99.90
25963;DHT22;13760;52.588;13.406;2023-03-04T08:56:35;5.30;99.90
25963;DHT22;13760;52.588;13.406;2023-03-04T08:59:03;5.40;99.90
25963;DHT22;13760;52.588;13.406;2023-03-04T09:01:30;5.40;99.90
25963;DHT22;13760;52.588;13.406;2023-03-04T09:03:55;5.50;99.90
25963;DHT22;13760;52.588;13.406;2023-03-04T09:06:36;5.50;99.90
25963;DHT22;13760;52.588;13.406;2023-03-04T09:15:36;5.70;99.90
25963;DHT22;13760;52.588;13.406;2023-03-04T09:18:03;5.80;99.90
25963;DHT22;13760;52.588;13.406;2023-03-04T09:24:12;5.90;99.90
25963;DHT22;13760;52.588;13.406;2023-03-04T09:26:52;6.00;99.90
25963;DHT22;13760;52.588;13.406;2023-03-04T09:29:18;6.00;99.90
25963;DHT22;13760;52.588;13.406;2023-03-04T09:31:43;6.00;99.90
25963;DHT22;13760;52.588;13.406;2023-03-04T09:34:09;6.10;99.90
25963;DHT22;13760;52.588;13.406;2023-03-04T09:36:34;6.10;99.90
25963;DHT22;13760;52.588;13.406;2023-03-04T09:39:01;6.10;99.90
25963;DHT22;13760;52.588;13.406;2023-03-04T09:41:38;6.10;99.90
25963;DHT22;13760;52.588;13.406;2023-03-04T09:46:39;6.10;99.90
25963;DHT22;13760;52.588;13.406;2023-03-04T09:49:05;6.20;99.90
25963;DHT22;13760;52.588;13.406;2023-03-04T09:54:19;6.30;99.90
25963;DHT22;13760;52.588;13.406;2023-03-04T09:56:50;6.40;99.90
25963;DHT22;13760;52.588;13.406;2023-03-04T09:59:42;6.40;99.90
25963;DHT22;13760;52.588;13.406;2023-03-04T10:02:22;6.40;99.90
25963;DHT22;13760;52.588;13.406;2023-03-04T10:04:58;6.50;99.90
25963;DHT22;13760;52.588;13.406;2023-03-04T10:07:32;6.50;99.90
25963;DHT22;13760;52.588;13.406;2023-03-04T10:10:06;6.50;99.90
25963;DHT22;13760;52.588;13.406;2023-03-04T10:12:36;6.50;99.90
25963;DHT22;13760;52.588;13.406;2023-03-04T10:17:46;6.50;99.90
25963;DHT22;13760;52.588;13.406;2023-03-04T10:20:23;6.60;99.90
25963;DHT22;13760;52.588;13.406;2023-03-04T10:22:51;6.60;99.90
25963;DHT22;13760;52.588;13.406;2023-03-04T10:25:28;6.70;99.90
25963;DHT22;13760;52.588;13.406;2023-03-04T10:28:00;6.70;99.90
25963;DHT22;13760;52.588;13.406;2023-03-04T10:33:19;6.80;99.90
25963;DHT22;13760;52.588;13.406;2023-03-04T10:36:23;6.80;99.90
25963;DHT22;13760;52.588;13.406;2023-03-04T10:39:08;6.90;99.90
25963;DHT22;13760;52.588;13.406;2023-03-04T10:41:34;7.00;99.90
25963;DHT22;13760;52.588;13.406;2023-03-04T10:46:39;7.10;99.90
25963;DHT22;13760;52.588;13.406;2023-03-04T10:49:05;7.10;99.90
25963;DHT22;13760;52.588;13.406;2023-03-04T10:51:31;7.20;99.90
25963;DHT22;13760;52.588;13.406;2023-03-04T10:54:02;7.20;99.90
25963;DHT22;13760;52.588;13.406;2023-03-04T10:56:40;7.20;99.90
25963;DHT22;13760;52.588;13.406;2023-03-04T11:04:51;7.30;99.90
25963;DHT22;13760;52.588;13.406;2023-03-04T11:07:19;7.30;99.90
25963;DHT22;13760;52.588;13.406;2023-03-04T11:09:45;7.40;99.90
25963;DHT22;13760;52.588;13.406;2023-03-04T11:12:16;7.50;99.90
25963;DHT22;13760;52.588;13.406;2023-03-04T11:14:48;7.50;99.90
25963;DHT22;13760;52.588;13.406;2023-03-04T11:22:30;7.50;99.90
25963;DHT22;13760;52.588;13.406;2023-03-04T11:25:06;7.50;99.90
25963;DHT22;13760;52.588;13.406;2023-03-04T11:27:45;7.40;99.90
25963;DHT22;13760;52.588;13.406;2023-03-04T11:31:00;7.30;99.90
25963;DHT22;13760;52.588;13.406;2023-03-04T11:36:09;7.30;99.90
25963;DHT22;13760;52.588;13.406;2023-03-04T11:38:41;7.30;99.90
25963;DHT22;13760;52.588;13.406;2023-03-04T11:41:13;7.30;99.90
25963;DHT22;13760;52.588;13.406;2023-03-04T11:43:44;7.30;99.90
25963;DHT22;13760;52.588;13.406;2023-03-04T11:48:51;7.40;99.90
25963;DHT22;13760;52.588;13.406;2023-03-04T11:59:58;7.60;99.90
25963;DHT22;13760;52.588;13.406;2023-03-04T12:02:47;7.60;99.90
25963;DHT22;13760;52.588;13.406;2023-03-04T12:05:57;7.60;99.90
25963;DHT22;13760;52.588;13.406;2023-03-04T12:08:38;7.50;99.90
25963;DHT22;13760;52.588;13.406;2023-03-04T12:14:10;7.50;99.90
25963;DHT22;13760;52.588;13.406;2023-03-04T12:16:53;7.60;99.90
25963;DHT22;13760;52.588;13.406;2023-03-04T12:19:45;7.70;99.90
25963;DHT22;13760;52.588;13.406;2023-03-04T12:22:36;7.70;99.90
25963;DHT22;13760;52.588;13.406;2023-03-04T12:25:32;7.60;99.90
25963;DHT22;13760;52.588;13.406;2023-03-04T12:34:17;7.30;99.90
25963;DHT22;13760;52.588;13.406;2023-03-04T12:40:00;7.10;99.90
25963;DHT22;13760;52.588;13.406;2023-03-04T12:42:54;7.10;99.90
25963;DHT22;13760;52.588;13.406;2023-03-04T12:45:29;7.10;99.90
25963;DHT22;13760;52.588;13.406;2023-03-04T12:48:34;7.10;99.90
25963;DHT22;13760;52.588;13.406;2023-03-04T12:51:28;7.20;99.90
25963;DHT22;13760;52.588;13.406;2023-03-04T12:56:50;7.30;99.90
25963;DHT22;13760;52.588;13.406;2023-03-04T12:59:19;7.30;99.90
25963;DHT22;13760;52.588;13.406;2023-03-04T13:07:20;7.20;99.90
25963;DHT22;13760;52.588;13.406;2023-03-04T13:10:00;7.10;99.90
25963;DHT22;13760;52.588;13.406;2023-03-04T13:12:27;7.10;99.90
25963;DHT22;13760;52.588;13.406;2023-03-04T13:20:44;7.10;99.90
25963;DHT22;13760;52.588;13.406;2023-03-04T13:26:17;7.20;99.90
25963;DHT22;13760;52.588;13.406;2023-03-04T13:28:45;7.00;99.90
25963;DHT22;13760;52.588;13.406;2023-03-04T13:31:23;7.00;99.90
25963;DHT22;13760;52.588;13.406;2023-03-04T13:33:54;6.90;99.90
25963;DHT22;13760;52.588;13.406;2023-03-04T13:37:12;6.90;99.90
25963;DHT22;13760;52.588;13.406;2023-03-04T13:39:26;6.90;99.90
25963;DHT22;13760;52.588;13.406;2023-03-04T13:41:59;6.90;99.90
25963;DHT22;13760;52.588;13.406;2023-03-04T13:44:55;6.90;99.90
25963;DHT22;13760;52.588;13.406;2023-03-04T13:47:29;6.80;99.90
25963;DHT22;13760;52.588;13.406;2023-03-04T13:50:27;6.70;99.90
25963;DHT22;13760;52.588;13.406;2023-03-04T13:55:42;6.70;99.90
25963;DHT22;13760;52.588;13.406;2023-03-04T13:58:23;6.70;99.90
25963;DHT22;13760;52.588;13.406;2023-03-04T14:00:52;6.70;99.90
25963;DHT22;13760;52.588;13.406;2023-03-04T14:03:25;6.70;99.90
25963;DHT22;13760;52.588;13.406;2023-03-04T14:08:42;6.60;99.90
25963;DHT22;13760;52.588;13.406;2023-03-04T14:11:32;6.60;99.90
25963;DHT22;13760;52.588;13.406;2023-03-04T14:14:02;6.60;99.90
25963;DHT22;13760;52.588;13.406;2023-03-04T14:16:32;6.60;99.90
25963;DHT22;13760;52.588;13.406;2023-03-04T14:19:03;6.50;99.90
25963;DHT22;13760;52.588;13.406;2023-03-04T14:21:31;6.50;99.90
25963;DHT22;13760;52.588;13.406;2023-03-04T14:26:28;6.50;99.90
25963;DHT22;13760;52.588;13.406;2023-03-04T14:28:55;6.40;99.90
25963;DHT22;13760;52.588;13.406;2023-03-04T14:31:25;6.40;99.90
25963;DHT22;13760;52.588;13.406;2023-03-04T14:33:55;6.30;99.90
25963;DHT22;13760;52.588;13.406;2023-03-04T14:36:28;6.30;99.90
25963;DHT22;13760;52.588;13.406;2023-03-04T14:38:56;6.30;99.90
25963;DHT22;13760;52.588;13.406;2023-03-04T14:41:38;6.20;99.90
25963;DHT22;13760;52.588;13.406;2023-03-04T14:46:43;6.20;99.90
25963;DHT22;13760;52.588;13.406;2023-03-04T14:49:10;6.20;99.90
25963;DHT22;13760;52.588;13.406;2023-03-04T14:51:45;6.20;99.90
25963;DHT22;13760;52.588;13.406;2023-03-04T14:54:31;6.20;99.90
25963;DHT22;13760;52.588;13.406;2023-03-04T14:56:59;6.10;99.90
25963;DHT22;13760;52.588;13.406;2023-03-04T14:59:33;6.10;99.90
25963;DHT22;13760;52.588;13.406;2023-03-04T15:02:26;6.00;99.90
25963;DHT22;13760;52.588;13.406;2023-03-04T15:04:57;6.00;99.90
25963;DHT22;13760;52.588;13.406;2023-03-04T15:07:34;6.10;99.90
25963;DHT22;13760;52.588;13.406;2023-03-04T15:10:06;6.10;99.90
25963;DHT22;13760;52.588;13.406;2023-03-04T15:12:34;6.10;99.90
25963;DHT22;13760;52.588;13.406;2023-03-04T15:15:03;6.20;99.90
25963;DHT22;13760;52.588;13.406;2023-03-04T15:17:39;6.20;99.90
25963;DHT22;13760;52.588;13.406;2023-03-04T15:22:54;6.20;99.90
25963;DHT22;13760;52.588;13.406;2023-03-04T15:25:21;6.20;99.90
25963;DHT22;13760;52.588;13.406;2023-03-04T15:27:49;6.20;99.90
25963;DHT22;13760;52.588;13.406;2023-03-04T15:32:46;6.10;99.90
25963;DHT22;13760;52.588;13.406;2023-03-04T15:35:13;6.10;99.90
25963;DHT22;13760;52.588;13.406;2023-03-04T15:37:39;6.10;99.90
25963;DHT22;13760;52.588;13.406;2023-03-04T15:40:21;6.10;99.90
25963;DHT22;13760;52.588;13.406;2023-03-04T15:42:47;6.10;99.90
25963;DHT22;13760;52.588;13.406;2023-03-04T15:47:45;6.20;99.90
25963;DHT22;13760;52.588;13.406;2023-03-04T15:50:10;6.20;99.90
25963;DHT22;13760;52.588;13.406;2023-03-04T15:52:37;6.10;99.90
25963;DHT22;13760;52.588;13.406;2023-03-04T15:55:05;6.10;99.90
25963;DHT22;13760;52.588;13.406;2023-03-04T15:57:32;6.00;99.90
25963;DHT22;13760;52.588;13.406;2023-03-04T15:59:58;6.00;99.90
25963;DHT22;13760;52.588;13.406;2023-03-04T16:02:25;5.90;99.90
25963;DHT22;13760;52.588;13.406;2023-03-04T16:04:52;5.90;99.90
25963;DHT22;13760;52.588;13.406;2023-03-04T16:07:21;5.80;99.90
25963;DHT22;13760;52.588;13.406;2023-03-04T16:09:53;5.80;99.90
25963;DHT22;13760;52.588;13.406;2023-03-04T16:12:20;5.80;99.90
25963;DHT22;13760;52.588;13.406;2023-03-04T16:14:45;5.80;99.90
25963;DHT22;13760;52.588;13.406;2023-03-04T16:17:11;5.70;99.90
25963;DHT22;13760;52.588;13.406;2023-03-04T16:19:40;5.70;99.90
25963;DHT22;13760;52.588;13.406;2023-03-04T16:22:05;5.70;99.90
25963;DHT22;13760;52.588;13.406;2023-03-04T16:24:33;5.60;99.90
25963;DHT22;13760;52.588;13.406;2023-03-04T16:26:58;5.60;99.90
25963;DHT22;13760;52.588;13.406;2023-03-04T16:29:24;5.60;99.90
25963;DHT22;13760;52.588;13.406;2023-03-04T16:31:50;5.50;99.90
25963;DHT22;13760;52.588;13.406;2023-03-04T16:34:18;5.50;99.90
25963;DHT22;13760;52.588;13.406;2023-03-04T16:36:44;5.50;99.90
25963;DHT22;13760;52.588;13.406;2023-03-04T16:39:21;5.50;99.90
25963;DHT22;13760;52.588;13.406;2023-03-04T16:41:47;5.40;99.90
25963;DHT22;13760;52.588;13.406;2023-03-04T16:44:12;5.40;99.90
25963;DHT22;13760;52.588;13.406;2023-03-04T16:46:39;5.40;99.90
25963;DHT22;13760;52.588;13.406;2023-03-04T16:49:04;5.40;99.90
25963;DHT22;13760;52.588;13.406;2023-03-04T16:51:34;5.30;99.90
25963;DHT22;13760;52.588;13.406;2023-03-04T16:54:00;5.30;99.90
25963;DHT22;13760;52.588;13.406;2023-03-04T16:56:26;5.30;99.90
25963;DHT22;13760;52.588;13.406;2023-03-04T16:58:52;5.30;99.90
25963;DHT22;13760;52.588;13.406;2023-03-04T17:01:25;5.20;99.90
25963;DHT22;13760;52.588;13.406;2023-03-04T17:03:51;5.20;99.90
25963;DHT22;13760;52.588;13.406;2023-03-04T17:06:17;5.20;99.90
25963;DHT22;13760;52.588;13.406;2023-03-04T17:08:43;5.20;99.90
25963;DHT22;13760;52.588;13.406;2023-03-04T17:11:15;5.20;99.90
25963;DHT22;13760;52.588;13.406;2023-03-04T17:13:47;5.20;99.90
25963;DHT22;13760;52.588;13.406;2023-03-04T17:16:16;5.10;99.90
25963;DHT22;13760;52.588;13.406;2023-03-04T17:18:42;5.20;99.90
25963;DHT22;13760;52.588;13.406;2023-03-04T17:21:12;5.10;99.90
25963;DHT22;13760;52.588;13.406;2023-03-04T17:23:38;5.10;99.90
25963;DHT22;13760;52.588;13.406;2023-03-04T17:26:03;5.10;99.90
25963;DHT22;13760;52.588;13.406;2023-03-04T17:28:30;5.10;99.90
25963;DHT22;13760;52.588;13.406;2023-03-04T17:30:56;5.10;99.90
25963;DHT22;13760;52.588;13.406;2023-03-04T17:33:22;5.10;99.90